createdAt,value
2022-08-26T00:04:43.102Z,20.03
2022-08-26T00:09:47.359Z,19.98
2022-08-26T00:14:50.536Z,19.91
2022-08-26T00:19:53.911Z,19.88
2022-08-26T00:24:56.934Z,19.88
2022-08-26T00:30:08.787Z,19.87
2022-08-26T00:35:13.631Z,19.83
2022-08-26T00:40:24.472Z,19.73
2022-08-26T00:45:33.560Z,19.56
2022-08-26T00:50:45.683Z,19.48
2022-08-26T00:56:22.596Z,19.41
2022-08-26T01:01:28.285Z,19.41
2022-08-26T01:06:33.785Z,19.42
2022-08-26T01:11:36.987Z,19.40
2022-08-26T01:16:40.566Z,19.38
2022-08-26T01:21:54.172Z,19.36
2022-08-26T01:27:05.461Z,19.32
2022-08-26T01:32:12.061Z,19.27
2022-08-26T01:37:23.912Z,19.24
2022-08-26T01:42:28.537Z,19.22
2022-08-26T01:47:35.185Z,19.24
2022-08-26T01:52:42.704Z,19.23
2022-08-26T01:57:51.350Z,19.20
2022-08-26T02:03:17.423Z,19.16
2022-08-26T02:08:46.003Z,19.10
2022-08-26T02:13:58.203Z,19.02
2022-08-26T02:19:04.912Z,18.95
2022-08-26T02:24:22.967Z,18.89
2022-08-26T02:29:41.464Z,18.82
2022-08-26T02:34:46.330Z,18.79
2022-08-26T02:39:49.546Z,18.78
2022-08-26T02:44:52.798Z,18.78
2022-08-26T02:49:55.816Z,18.84
2022-08-26T02:54:58.789Z,18.88
2022-08-26T03:00:03.100Z,18.82
2022-08-26T03:05:07.595Z,18.76
2022-08-26T03:10:12.717Z,18.71
2022-08-26T03:15:18.845Z,18.70
2022-08-26T03:20:22.136Z,18.68
2022-08-26T03:25:25.928Z,18.67
2022-08-26T03:30:45.285Z,18.65
2022-08-26T03:35:50.525Z,18.62
2022-08-26T03:40:53.927Z,18.60
2022-08-26T03:45:56.920Z,18.49
2022-08-26T03:51:02.193Z,18.46
2022-08-26T03:56:06.739Z,18.37
2022-08-26T04:01:12.422Z,18.27
2022-08-26T04:06:16.165Z,18.35
2022-08-26T04:11:22.979Z,18.49
2022-08-26T04:16:29.171Z,18.61
2022-08-26T04:21:32.151Z,18.72
2022-08-26T04:26:39.447Z,18.75
2022-08-26T04:31:50.447Z,18.77
2022-08-26T04:36:58.727Z,18.86
2022-08-26T04:42:02.092Z,18.96
2022-08-26T04:47:05.674Z,19.13
2022-08-26T04:52:08.692Z,19.32
2022-08-26T04:57:11.958Z,19.51
2022-08-26T05:02:15.076Z,19.64
2022-08-26T05:07:18.313Z,19.75
2022-08-26T05:12:21.262Z,19.85
2022-08-26T05:17:24.664Z,19.98
2022-08-26T05:22:27.638Z,20.14
2022-08-26T05:27:30.631Z,20.29
2022-08-26T05:32:33.575Z,20.71
2022-08-26T05:37:38.561Z,21.26
2022-08-26T05:42:42.820Z,21.58
2022-08-26T05:47:46.509Z,22.00
2022-08-26T05:52:50.994Z,22.61
2022-08-26T05:57:53.915Z,23.38
2022-08-26T06:02:58.585Z,23.98
2022-08-26T06:08:19.217Z,24.23
2022-08-26T06:13:27.192Z,24.71
2022-08-26T06:18:38.452Z,25.32
2022-08-26T06:24:01.218Z,25.70
2022-08-26T06:29:06.900Z,25.86
2022-08-26T06:34:11.793Z,25.54
2022-08-26T06:39:17.786Z,25.08
2022-08-26T06:44:20.969Z,24.84
2022-08-26T06:49:26.735Z,24.78
2022-08-26T06:54:31.902Z,24.98
2022-08-26T06:59:34.977Z,25.55
2022-08-26T07:04:37.932Z,25.95
2022-08-26T07:09:41.449Z,26.39
2022-08-26T07:14:47.412Z,26.79
2022-08-26T07:19:51.196Z,27.30
2022-08-26T07:24:55.631Z,27.61
2022-08-26T07:29:58.785Z,27.62
2022-08-26T07:35:01.740Z,27.70
2022-08-26T07:40:05.330Z,27.86
2022-08-26T07:45:08.570Z,27.97
2022-08-26T07:50:12.264Z,28.10
2022-08-26T07:55:15.401Z,28.05
2022-08-26T08:00:18.499Z,27.81
2022-08-26T08:05:23.068Z,27.36
2022-08-26T08:10:38.319Z,26.87
2022-08-26T08:15:42.400Z,26.51
2022-08-26T08:20:59.189Z,26.42
2022-08-26T08:26:11.061Z,26.63
2022-08-26T08:31:55.977Z,27.18
2022-08-26T08:36:50.502Z,27.88
2022-08-26T08:42:29.990Z,28.39
2022-08-26T08:47:39.642Z,28.57
2022-08-26T08:52:49.243Z,28.75
2022-08-26T08:58:13.489Z,28.93
2022-08-26T09:03:27.924Z,29.03
2022-08-26T09:08:36.406Z,29.26
2022-08-26T09:13:45.313Z,29.16
2022-08-26T09:19:02.302Z,29.27
2022-08-26T09:24:08.259Z,29.46
2022-08-26T09:29:40.836Z,30.31
2022-08-26T09:35:31.131Z,31.18
2022-08-26T09:40:36.695Z,31.71
2022-08-26T09:45:44.555Z,32.07
2022-08-26T09:50:59.411Z,32.48
2022-08-26T09:56:32.731Z,32.74
2022-08-26T10:01:44.893Z,32.52
2022-08-26T10:07:08.217Z,32.03
2022-08-26T10:12:17.674Z,31.43
2022-08-26T10:17:55.584Z,31.14
2022-08-26T10:23:20.468Z,30.88
2022-08-26T10:28:49.943Z,30.62
2022-08-26T10:33:58.685Z,30.41
2022-08-26T10:39:11.241Z,30.20
2022-08-26T10:44:18.622Z,29.91
2022-08-26T10:49:21.635Z,29.73
2022-08-26T10:54:34.480Z,29.64
2022-08-26T11:00:00.389Z,29.65
2022-08-26T11:05:19.811Z,29.67
2022-08-26T11:10:22.986Z,29.52
2022-08-26T11:15:28.189Z,29.43
2022-08-26T11:20:44.953Z,29.35
2022-08-26T11:26:11.014Z,29.51
2022-08-26T11:31:26.702Z,30.01
2022-08-26T11:36:38.753Z,30.35
2022-08-26T11:41:48.394Z,30.73
2022-08-26T11:47:00.756Z,30.81
2022-08-26T11:52:22.549Z,31.16
2022-08-26T11:57:27.241Z,31.35
2022-08-26T12:02:30.292Z,31.40
2022-08-26T12:07:33.425Z,31.53
2022-08-26T12:12:42.566Z,31.80
2022-08-26T12:17:52.923Z,32.07
2022-08-26T12:23:00.220Z,31.92
2022-08-26T12:28:06.275Z,32.03
2022-08-26T12:33:22.089Z,32.35
2022-08-26T12:38:28.203Z,32.79
2022-08-26T12:43:44.867Z,32.41
2022-08-26T12:48:50.191Z,31.96
2022-08-26T12:53:54.500Z,32.00
2022-08-26T12:59:24.052Z,32.24
2022-08-26T13:04:41.268Z,32.08
2022-08-26T13:09:44.499Z,32.22
2022-08-26T13:14:47.594Z,32.29
2022-08-26T13:19:50.625Z,32.38
2022-08-26T13:24:56.828Z,32.57
2022-08-26T13:30:00.486Z,32.87
2022-08-26T13:35:05.977Z,32.94
2022-08-26T13:40:10.282Z,32.90
2022-08-26T13:45:13.363Z,32.78
2022-08-26T13:50:16.574Z,32.68
2022-08-26T13:55:19.584Z,32.54
2022-08-26T14:00:23.194Z,32.10
2022-08-26T14:05:28.189Z,31.61
2022-08-26T14:10:31.302Z,30.95
2022-08-26T14:15:36.276Z,30.46
2022-08-26T14:20:39.980Z,30.03
2022-08-26T14:25:43.139Z,29.63
2022-08-26T14:30:54.368Z,29.50
2022-08-26T14:36:17.292Z,29.36
2022-08-26T14:41:21.724Z,29.11
2022-08-26T14:46:29.036Z,29.12
2022-08-26T14:51:33.224Z,29.38
2022-08-26T14:56:41.535Z,29.79
2022-08-26T15:01:45.758Z,30.18
2022-08-26T15:06:49.905Z,30.47
2022-08-26T15:11:53.417Z,30.56
2022-08-26T15:16:58.073Z,30.69
2022-08-26T15:22:01.136Z,30.73
2022-08-26T15:27:04.307Z,30.70
2022-08-26T15:32:07.631Z,30.73
2022-08-26T15:37:11.016Z,30.73
2022-08-26T15:42:14.156Z,30.64
2022-08-26T15:47:17.177Z,30.53
2022-08-26T15:52:21.356Z,30.31
2022-08-26T15:57:24.587Z,30.30
2022-08-26T16:02:32.332Z,30.15
2022-08-26T16:07:35.745Z,29.99
2022-08-26T16:12:38.853Z,29.84
2022-08-26T16:17:41.947Z,29.61
2022-08-26T16:22:45.075Z,29.50
2022-08-26T16:27:48.374Z,29.37
2022-08-26T16:32:51.330Z,29.19
2022-08-26T16:37:56.434Z,28.98
2022-08-26T16:42:59.562Z,28.71
2022-08-26T16:48:02.986Z,28.49
2022-08-26T16:53:06.280Z,28.36
2022-08-26T16:58:09.559Z,28.24
2022-08-26T17:03:12.831Z,27.99
2022-08-26T17:08:24.395Z,27.56
2022-08-26T17:13:35.767Z,27.15
2022-08-26T17:18:39.376Z,26.68
2022-08-26T17:23:43.766Z,26.44
2022-08-26T17:28:47.189Z,26.35
2022-08-26T17:33:53.682Z,26.20
2022-08-26T17:38:58.653Z,25.81
2022-08-26T17:44:01.641Z,25.20
2022-08-26T17:49:05.732Z,24.71
2022-08-26T17:54:09.382Z,24.41
2022-08-26T17:59:12.467Z,24.18
2022-08-26T18:04:16.169Z,23.96
2022-08-26T18:09:19.362Z,23.71
2022-08-26T18:14:22.376Z,23.45
2022-08-26T18:19:26.579Z,23.20
2022-08-26T18:24:32.246Z,22.97
2022-08-26T18:29:35.464Z,22.76
2022-08-26T18:34:41.634Z,22.52
2022-08-26T18:39:44.732Z,22.33
2022-08-26T18:44:51.399Z,22.17
2022-08-26T18:49:54.980Z,21.96
2022-08-26T18:54:58.203Z,21.73
2022-08-26T19:00:02.594Z,21.59
2022-08-26T19:05:07.051Z,21.61
2022-08-26T19:10:11.994Z,21.64
2022-08-26T19:15:14.955Z,21.60
2022-08-26T19:20:18.048Z,21.61
2022-08-26T19:25:21.041Z,21.70
2022-08-26T19:30:24.339Z,21.77
2022-08-26T19:35:32.632Z,21.61
2022-08-26T19:40:38.597Z,21.41
2022-08-26T19:45:41.678Z,21.27
2022-08-26T19:50:46.442Z,21.16
2022-08-26T19:55:49.355Z,21.06
2022-08-26T20:00:52.359Z,21.01
2022-08-26T20:05:55.296Z,21.10
2022-08-26T20:11:04.956Z,21.16
2022-08-26T20:16:10.420Z,21.14
2022-08-26T20:21:26.247Z,21.05
2022-08-26T20:26:33.325Z,21.00
2022-08-26T20:31:37.030Z,20.98
2022-08-26T20:36:41.924Z,20.95
2022-08-26T20:41:45.637Z,20.90
2022-08-26T20:46:50.029Z,20.85
2022-08-26T20:51:54.136Z,20.75
2022-08-26T20:56:58.724Z,20.63
2022-08-26T21:02:01.904Z,20.49
2022-08-26T21:07:05.024Z,20.35
2022-08-26T21:12:09.255Z,20.19
2022-08-26T21:17:12.807Z,20.08
2022-08-26T21:22:15.887Z,20.01
2022-08-26T21:27:26.143Z,19.92
2022-08-26T21:32:29.701Z,19.89
2022-08-26T21:37:32.921Z,19.85
2022-08-26T21:42:36.249Z,19.70
2022-08-26T21:47:39.767Z,19.55
2022-08-26T21:52:42.815Z,19.50
2022-08-26T21:57:45.842Z,19.40
2022-08-26T22:02:50.355Z,19.29
2022-08-26T22:07:53.841Z,19.23
2022-08-26T22:12:56.879Z,19.12
2022-08-26T22:17:59.872Z,19.11
2022-08-26T22:23:03.249Z,19.09
2022-08-26T22:28:07.693Z,19.06
2022-08-26T22:33:11.469Z,19.02
2022-08-26T22:38:15.078Z,18.98
2022-08-26T22:43:19.372Z,18.94
2022-08-26T22:48:25.857Z,18.83
2022-08-26T22:53:29.107Z,18.73
2022-08-26T22:58:36.301Z,18.64
2022-08-26T23:03:39.562Z,18.60
2022-08-26T23:08:45.386Z,18.55
2022-08-26T23:13:48.468Z,18.50
2022-08-26T23:18:51.610Z,18.43
2022-08-26T23:23:54.644Z,18.32
2022-08-26T23:28:58.125Z,18.22
2022-08-26T23:34:19.864Z,18.13
2022-08-26T23:39:25.590Z,18.09
2022-08-26T23:44:31.151Z,18.09
2022-08-26T23:49:35.147Z,18.05
2022-08-26T23:54:39.996Z,17.98
2022-08-26T23:59:43.451Z,17.89
